Time;durP1;ratioP1;P1;durP2;ratioP2;P2;SDS_P1;SDS_P2;PMS_P1;PMS_P2;Temp;Humidity;BMP_temperature;BMP_pressure;BME280_temperature;BME280_humidity;BME280_pressure;Samples;Min_cycle;Max_cycle;Signal;HPM_P1;HPM_P2
2022/04/18 00:00:15;;;;;;;9.87;7.40;;;;;;;18.94;80.17;99809.66;1591694;88;21852;-58
2022/04/18 00:02:43;;;;;;;9.93;7.17;;;;;;;19.13;78.21;99807.95;1591765;88;21409;-60
2022/04/18 00:05:10;;;;;;;10.47;7.60;;;;;;;19.08;78.13;99804.75;1606196;89;22423;-58
2022/04/18 00:07:38;;;;;;;10.60;7.63;;;;;;;19.15;78.41;99814.59;1607172;89;21314;-60
2022/04/18 00:10:05;;;;;;;9.63;7.37;;;;;;;19.16;77.82;99811.42;1607713;87;21290;-59
2022/04/18 00:12:33;;;;;;;10.93;7.80;;;;;;;19.39;74.91;99801.05;1607265;87;21646;-58
2022/04/18 00:15:02;;;;;;;11.40;7.03;;;;;;;19.30;75.05;99795.97;1607584;87;21321;-58
2022/04/18 00:17:29;;;;;;;10.60;7.80;;;;;;;19.12;76.74;99795.28;1607726;87;21353;-58
2022/04/18 00:19:57;;;;;;;9.40;7.20;;;;;;;19.09;77.14;99793.16;1607508;87;21747;-58
2022/04/18 00:22:25;;;;;;;10.67;8.03;;;;;;;19.00;78.16;99797.28;1607850;87;22123;-58
2022/04/18 00:24:52;;;;;;;12.57;8.50;;;;;;;18.99;79.55;99804.94;1607267;89;21311;-58
2022/04/18 00:27:20;;;;;;;10.67;7.67;;;;;;;19.01;79.15;99805.47;1607510;87;21270;-61
2022/04/18 00:29:50;;;;;;;13.00;7.53;;;;;;;19.24;76.24;99801.72;1607218;87;21393;-60
2022/04/18 00:32:18;;;;;;;;;;;;;;;19.14;77.16;99787.91;1609489;89;22293;-59
2022/04/18 00:34:46;;;;;;;11.37;8.03;;;;;;;19.36;75.47;99788.37;1597878;87;21048;-58
2022/04/18 00:37:14;;;;;;;10.27;7.70;;;;;;;19.20;77.18;99798.78;1607289;89;21358;-59
2022/04/18 00:39:41;;;;;;;12.10;7.57;;;;;;;19.41;75.59;99794.48;1607724;87;21407;-59
2022/04/18 00:42:10;;;;;;;10.30;7.60;;;;;;;19.57;73.39;99794.06;1606556;87;21938;-58
2022/04/18 00:44:37;;;;;;;9.90;7.83;;;;;;;19.44;74.03;99789.22;1607553;87;21427;-59
2022/04/18 00:47:05;;;;;;;10.47;8.00;;;;;;;19.47;74.83;99789.22;1607051;89;21303;-58
2022/04/18 00:49:34;;;;;;;10.27;8.13;;;;;;;19.48;74.78;99786.88;1607398;87;21342;-59
2022/04/18 00:52:04;;;;;;;10.27;8.20;;;;;;;19.13;78.62;99782.86;1606707;89;21292;-59
2022/04/18 00:54:33;;;;;;;9.27;7.37;;;;;;;19.10;79.16;99786.82;1607120;89;21254;-58
2022/04/18 00:57:03;;;;;;;10.87;8.80;;;;;;;19.15;79.11;99790.81;1607694;87;21348;-58
2022/04/18 00:59:32;;;;;;;11.90;8.70;;;;;;;19.09;81.04;99789.69;1607038;89;21232;-58
2022/04/18 01:01:58;;;;;;;10.80;8.67;;;;;;;19.20;80.67;99788.21;1606558;89;21235;-59
2022/04/18 01:04:26;;;;;;;9.90;7.57;;;;;;;19.17;80.40;99786.09;1607495;87;21221;-60
2022/04/18 01:06:55;;;;;;;11.43;8.60;;;;;;;18.32;90.54;99789.38;1607496;87;21821;-58
2022/04/18 01:09:24;;;;;;;11.63;8.40;;;;;;;18.24;94.00;99788.75;1607739;87;21366;-59
2022/04/18 01:11:51;;;;;;;9.80;7.93;;;;;;;18.22;93.47;99788.22;1607020;87;21256;-60
2022/04/18 01:14:19;;;;;;;10.20;7.67;;;;;;;18.24;93.43;99782.16;1639683;86;21778;-58
2022/04/18 01:16:46;;;;;;;10.37;7.83;;;;;;;18.24;92.97;99780.84;1641674;87;21719;-58
2022/04/18 01:19:32;;;;;;;10.10;8.03;;;;;;;18.31;92.32;99771.42;1641132;87;21222;-66
2022/04/18 01:22:00;;;;;;;13.13;8.60;;;;;;;18.27;92.61;99772.96;1638230;87;21758;-57
2022/04/18 01:30:07;;;;;;;12.80;8.20;;;;;;;18.32;92.12;99772.22;1641777;86;21172;-57
2022/04/18 01:32:35;;;;;;;10.03;7.60;;;;;;;18.27;92.93;99764.25;1641975;86;21885;-57
2022/04/18 01:35:02;;;;;;;11.23;8.03;;;;;;;18.35;91.50;99756.70;1641415;86;21362;-58
2022/04/18 01:37:31;;;;;;;9.63;7.27;;;;;;;18.47;89.77;99763.16;1640954;87;21341;-57
2022/04/18 01:40:01;;;;;;;10.03;7.57;;;;;;;18.22;92.56;99763.16;1642513;86;21217;-59
2022/04/18 01:42:28;;;;;;;9.60;7.47;;;;;;;18.42;90.73;99763.11;1641482;86;21285;-58
2022/04/18 01:44:56;;;;;;;9.67;7.97;;;;;;;18.47;89.50;99765.80;1641902;86;21221;-58
2022/04/18 01:47:23;;;;;;;10.70;7.80;;;;;;;18.26;91.49;99761.32;1612173;87;21382;-57
2022/04/18 01:49:51;;;;;;;11.47;7.43;;;;;;;18.45;90.08;99765.27;1642347;86;21699;-57
2022/04/18 01:52:18;;;;;;;11.83;7.33;;;;;;;18.45;90.08;99765.27;1641505;87;21442;-57
2022/04/18 01:54:45;;;;;;;10.13;7.63;;;;;;;18.51;89.65;99766.91;1631146;87;21370;-58
2022/04/18 01:57:14;;;;;;;10.30;7.93;;;;;;;18.64;87.87;99772.34;1641359;86;21295;-58
2022/04/18 01:59:42;;;;;;;9.70;7.63;;;;;;;18.61;86.46;99759.10;1641676;86;22275;-58
2022/04/18 02:02:11;;;;;;;10.80;8.03;;;;;;;18.37;89.85;99756.44;1641279;87;21378;-58
2022/04/18 02:04:39;;;;;;;10.87;7.83;;;;;;;18.58;88.66;99756.16;1635437;86;21161;-58
2022/04/18 02:07:08;;;;;;;9.63;7.20;;;;;;;18.49;91.08;99762.41;1627613;86;21219;-67
2022/04/18 02:09:35;;;;;;;10.10;7.50;;;;;;;18.74;88.54;99765.86;1627867;86;21743;-58
2022/04/18 02:12:06;;;;;;;10.13;7.67;;;;;;;18.70;87.73;99773.47;1628035;86;21311;-57
2022/04/18 02:14:35;;;;;;;10.23;8.43;;;;;;;18.78;87.01;99782.00;1627536;88;21266;-59
2022/04/18 02:17:04;;;;;;;10.17;7.93;;;;;;;18.82;85.48;99784.41;1627601;86;21053;-66
2022/04/18 02:19:32;;;;;;;10.77;7.90;;;;;;;18.89;85.60;99787.66;1627312;86;21694;-60
2022/04/18 02:22:00;;;;;;;9.97;7.93;;;;;;;19.00;84.37;99786.72;1627569;86;21314;-60
2022/04/18 02:24:27;;;;;;;9.13;6.90;;;;;;;19.02;82.84;99776.71;1627470;86;21232;-59
2022/04/18 02:26:53;;;;;;;10.80;7.67;;;;;;;19.02;82.80;99775.39;1627619;86;21292;-59
2022/04/18 02:29:20;;;;;;;11.07;8.30;;;;;;;18.89;84.02;99774.45;1627957;86;21442;-59
2022/04/18 02:34:33;;;;;;;11.43;8.53;;;;;;;18.94;84.69;99758.15;1601664;88;21384;-59
2022/04/18 02:37:00;;;;;;;11.63;7.90;;;;;;;18.82;86.38;99756.69;1627695;86;21357;-58
2022/04/18 02:39:30;;;;;;;10.70;8.03;;;;;;;18.74;87.97;99755.82;1626708;87;21855;-58
2022/04/18 02:41:57;;;;;;;11.53;8.47;;;;;;;18.52;91.93;99765.05;1626817;88;21368;-58
2022/04/18 02:44:26;;;;;;;11.13;8.50;;;;;;;18.58;91.55;99762.23;1627530;86;21270;-59
2022/04/18 02:46:53;;;;;;;11.50;9.00;;;;;;;18.69;91.64;99751.27;1627347;88;22085;-59
2022/04/18 02:49:20;;;;;;;13.33;9.87;;;;;;;18.65;92.09;99745.68;1626325;88;21230;-68
2022/04/18 02:51:47;;;;;;;11.73;8.53;;;;;;;18.74;91.82;99741.30;1602183;88;21304;-59
2022/04/18 02:54:15;;;;;;;11.97;8.73;;;;;;;18.85;90.66;99742.47;1601462;88;21362;-59
2022/04/18 02:56:42;;;;;;;11.93;8.83;;;;;;;18.79;91.80;99747.94;1627047;88;21096;-59
2022/04/18 02:59:08;;;;;;;11.40;8.23;;;;;;;18.81;92.52;99740.58;1627168;86;21310;-68
2022/04/18 03:01:37;;;;;;;12.90;8.83;;;;;;;18.91;92.29;99735.41;1626895;87;21316;-60
2022/04/18 03:04:04;;;;;;;11.17;8.00;;;;;;;18.93;91.84;99726.69;1626916;86;21266;-59
2022/04/18 03:06:33;;;;;;;12.77;8.63;;;;;;;18.73;96.03;99722.02;1625654;86;21278;-59
2022/04/18 03:09:00;;;;;;;13.47;9.73;;;;;;;18.60;98.71;99713.14;1625480;86;21189;-62
2022/04/18 03:11:28;;;;;;;13.03;9.47;;;;;;;18.68;99.36;99704.80;1624969;86;21176;-59
2022/04/18 03:13:55;;;;;;;11.90;8.60;;;;;;;18.69;99.55;99697.94;1625570;86;21860;-58
2022/04/18 03:16:29;;;;;;;11.90;8.83;;;;;;;18.78;99.04;99688.27;1616061;87;21237;-60
2022/04/18 03:18:56;;;;;;;11.17;8.63;;;;;;;18.88;97.73;99677.80;1624985;86;21759;-66
2022/04/18 03:21:23;;;;;;;13.43;9.50;;;;;;;18.82;98.25;99676.94;1625084;86;21369;-59
2022/04/18 03:23:52;;;;;;;12.17;9.40;;;;;;;18.74;100.00;99664.73;1625574;86;21298;-59
2022/04/18 03:26:24;;;;;;;14.70;10.93;;;;;;;18.63;100.00;99668.56;1624443;86;21312;-59
2022/04/18 03:28:52;;;;;;;13.07;10.00;;;;;;;18.56;100.00;99662.72;1620110;86;21314;-60
2022/04/18 03:31:19;;;;;;;13.10;10.00;;;;;;;18.54;100.00;99660.05;1624907;86;21819;-58
2022/04/18 03:33:46;;;;;;;12.20;9.93;;;;;;;18.75;100.00;99664.47;1586448;89;22347;-60
2022/04/18 03:41:46;;;;;;;14.50;10.63;;;;;;;18.91;100.00;99650.36;1581750;88;21901;-59
2022/04/18 03:44:13;;;;;;;13.10;10.13;;;;;;;19.12;100.00;99653.94;1591637;88;21261;-58
2022/04/18 03:46:42;;;;;;;12.20;10.20;;;;;;;18.86;100.00;99645.02;1590743;89;21344;-68
2022/04/18 03:49:08;;;;;;;17.63;9.27;;;;;;;19.24;100.00;99631.81;1590811;90;22376;-61
2022/04/18 03:51:37;;;;;;;12.20;10.00;;;;;;;19.34;100.00;99643.25;1591213;88;21334;-58
2022/04/18 03:54:04;;;;;;;11.43;10.00;;;;;;;19.03;100.00;99658.64;1590994;90;21361;-59
2022/04/18 03:56:33;;;;;;;14.37;9.70;;;;;;;18.69;100.00;99650.41;1591052;90;21472;-59
2022/04/18 03:59:08;;;;;;;12.40;8.93;;;;;;;18.69;100.00;99650.41;1590992;90;21614;-58
2022/04/18 04:01:39;;;;;;;11.70;9.50;;;;;;;18.33;100.00;99648.48;1590360;88;21571;-59
2022/04/18 04:04:06;;;;;;;12.73;10.20;;;;;;;18.31;100.00;99646.62;1591320;88;21516;-61
2022/04/18 04:06:33;;;;;;;10.47;8.80;;;;;;;18.31;100.00;99646.62;1606965;87;22119;-58
2022/04/18 04:09:00;;;;;;;12.60;9.97;;;;;;;18.81;100.00;99628.36;1606407;89;21536;-65
2022/04/18 04:11:29;;;;;;;11.47;9.57;;;;;;;18.81;100.00;99628.36;1641430;86;21592;-58
2022/04/18 04:13:56;;;;;;;12.73;10.47;;;;;;;18.77;100.00;99608.27;1641625;86;21423;-58
2022/04/18 04:16:23;;;;;;;13.80;10.77;;;;;;;18.77;100.00;99608.27;1642132;86;21410;-59
2022/04/18 04:18:52;;;;;;;13.50;11.70;;;;;;;18.93;100.00;99606.52;1640779;87;21532;-60
2022/04/18 04:21:19;;;;;;;13.20;10.93;;;;;;;18.93;100.00;99606.52;1641074;87;22424;-59
2022/04/18 04:23:45;;;;;;;15.53;10.67;;;;;;;19.02;100.00;99605.55;1630729;87;21434;-59
2022/04/18 04:26:30;;;;;;;13.30;10.53;;;;;;;19.31;100.00;99609.92;1641535;86;21407;-66
2022/04/18 04:28:57;;;;;;;14.63;10.97;;;;;;;19.44;100.00;99600.23;1641406;86;21517;-59
2022/04/18 04:31:37;;;;;;;13.67;11.73;;;;;;;19.44;100.00;99600.23;1638915;86;21730;-59
2022/04/18 04:34:06;;;;;;;13.47;11.47;;;;;;;19.44;100.00;99584.38;1641463;86;22232;-60
2022/04/18 04:36:34;;;;;;;14.33;11.43;;;;;;;19.52;100.00;99577.27;1640354;86;21355;-59
2022/04/18 04:39:01;;;;;;;14.33;10.93;;;;;;;19.58;100.00;99575.42;1641540;86;22284;-59
2022/04/18 04:41:30;;;;;;;13.77;11.80;;;;;;;19.19;100.00;99563.36;1640448;86;21563;-58
2022/04/18 04:43:58;;;;;;;14.10;10.67;;;;;;;19.19;100.00;99563.36;1641649;86;21588;-57
2022/04/18 04:46:27;;;;;;;14.40;10.90;;;;;;;19.39;100.00;99553.94;1640377;86;21709;-67
2022/04/18 04:48:56;;;;;;;13.07;10.90;;;;;;;19.39;100.00;99553.94;1639732;87;22352;-57
2022/04/18 04:51:23;;;;;;;17.03;12.13;;;;;;;19.53;100.00;99540.52;1641800;86;21762;-60
2022/04/18 04:53:50;;;;;;;13.57;11.17;;;;;;;19.53;100.00;99540.52;1641147;87;21655;-59
2022/04/18 04:56:24;;;;;;;17.07;12.40;;;;;;;19.68;100.00;99536.63;1639968;86;21452;-60
2022/04/18 04:58:53;;;;;;;14.35;11.90;;;;;;;19.83;97.37;99520.54;1640835;87;23632;-59
2022/04/18 05:01:22;;;;;;;13.43;11.00;;;;;;;19.85;96.43;99521.87;1641456;86;21515;-61
2022/04/18 05:03:57;;;;;;;14.17;11.00;;;;;;;19.87;93.90;99524.25;1641332;86;21656;-59
2022/04/18 05:06:25;;;;;;;15.80;11.83;;;;;;;19.91;92.94;99534.56;1629167;86;21674;-68
2022/04/18 05:08:55;;;;;;;14.50;11.87;;;;;;;19.85;92.97;99538.25;1625715;86;21718;-58
2022/04/18 05:11:24;;;;;;;13.47;11.10;;;;;;;19.85;92.73;99540.89;1625571;86;22229;-58
2022/04/18 05:13:52;;;;;;;15.07;11.23;;;;;;;19.66;94.42;99540.58;1624190;86;22209;-58
2022/04/18 05:16:28;;;;;;;15.10;10.87;;;;;;;19.69;96.95;99537.42;1624263;88;22170;-59
2022/04/18 05:18:56;;;;;;;14.47;10.37;;;;;;;19.82;98.25;99540.11;1625083;86;21694;-59
2022/04/18 05:21:24;;;;;;;14.40;12.20;;;;;;;19.94;97.22;99541.98;1626073;86;21663;-58
2022/04/18 05:23:52;;;;;;;14.23;11.47;;;;;;;19.99;95.80;99543.30;1625423;86;21655;-59
2022/04/18 05:26:19;;;;;;;13.63;11.80;;;;;;;19.90;96.98;99531.13;1625106;86;21770;-60
2022/04/18 05:28:46;;;;;;;14.50;11.40;;;;;;;19.56;100.00;99550.58;1614500;86;21712;-59
2022/04/18 05:31:13;;;;;;;13.07;11.20;;;;;;;19.89;98.63;99536.70;1624872;88;21786;-58
2022/04/18 05:33:40;;;;;;;13.17;10.63;;;;;;;19.71;100.00;99549.08;1625445;86;21495;-59
2022/04/18 05:36:14;;;;;;;17.10;14.37;;;;;;;19.52;100.00;99548.19;1625679;86;21824;-60
2022/04/18 05:38:42;;;;;;;16.47;14.47;;;;;;;19.85;100.00;99540.39;1625484;86;22285;-70
2022/04/18 05:41:13;;;;;;;14.95;11.90;;;;;;;19.96;100.00;99538.53;1625593;86;21728;-59
2022/04/18 05:43:40;;;;;;;15.27;12.03;;;;;;;19.90;100.00;99527.70;1625419;86;21043;-59
2022/04/18 05:46:08;;;;;;;13.63;10.93;;;;;;;20.00;100.00;99526.40;1625014;88;22283;-61
2022/04/18 05:48:36;;;;;;;13.50;10.63;;;;;;;19.94;100.00;99527.44;1625512;86;21469;-59
2022/04/18 05:51:03;;;;;;;12.80;10.87;;;;;;;20.14;100.00;99531.41;1603601;86;22255;-62
2022/04/18 05:53:31;;;;;;;13.27;11.20;;;;;;;20.22;100.00;99516.86;1623548;88;22170;-61
2022/04/18 05:55:58;;;;;;;13.73;11.33;;;;;;;20.18;98.58;99518.45;1623434;86;21976;-60
2022/04/18 05:58:29;;;;;;;12.10;10.30;;;;;;;20.18;98.58;99518.45;1602306;88;21127;-60
2022/04/18 06:00:57;;;;;;;14.73;12.20;;;;;;;19.88;100.00;99507.31;1623652;86;21008;-70
2022/04/18 06:03:26;;;;;;;13.17;10.83;;;;;;;19.88;100.00;99507.31;1623852;86;21361;-65
2022/04/18 06:05:53;;;;;;;12.47;10.60;;;;;;;20.21;98.78;99506.02;1625110;86;21834;-60
2022/04/18 06:08:21;;;;;;;12.97;10.80;;;;;;;20.13;98.98;99507.34;1625682;87;21545;-59
2022/04/18 06:10:54;;;;;;;14.03;9.60;;;;;;;20.10;99.20;99503.90;1624810;88;21727;-70
2022/04/18 06:13:25;;;;;;;12.95;10.18;;;;;;;20.41;95.54;99502.57;1624673;86;21807;-60
2022/04/18 06:15:53;;;;;;;14.53;11.07;;;;;;;20.30;96.04;99516.86;1626010;86;21043;-60
2022/04/18 06:18:22;;;;;;;13.27;10.57;;;;;;;20.47;94.04;99527.98;1625550;87;22166;-61
2022/04/18 06:20:49;;;;;;;11.93;9.90;;;;;;;20.47;94.04;99527.98;1624669;88;21059;-59
2022/04/18 06:23:16;;;;;;;12.80;10.57;;;;;;;20.31;95.31;99537.00;1626206;86;22168;-62
2022/04/18 06:25:45;;;;;;;14.07;10.43;;;;;;;20.01;98.22;99535.91;1625856;86;21720;-59
2022/04/18 06:28:13;;;;;;;13.00;11.13;;;;;;;20.27;97.27;99543.35;1600477;88;21615;-63
2022/04/18 06:30:43;;;;;;;13.72;12.20;;;;;;;20.41;96.25;99543.59;1625594;86;22243;-62
2022/04/18 06:33:15;;;;;;;;;;;;;;;20.79;94.13;99537.51;1619120;88;21857;-68
2022/04/18 06:35:42;;;;;;;11.60;9.87;;;;;;;20.73;92.92;99537.27;1625914;86;20322;-59
2022/04/18 06:38:10;;;;;;;11.80;10.23;;;;;;;20.75;90.98;99547.84;1625607;88;21608;-59
2022/04/18 06:40:39;;;;;;;14.33;11.77;;;;;;;20.67;91.50;99552.89;1615516;86;21075;-59
2022/04/18 06:43:06;;;;;;;13.30;10.23;;;;;;;20.97;90.40;99529.53;1625751;86;22385;-66
2022/04/18 06:45:33;;;;;;;12.93;9.87;;;;;;;20.97;90.40;99529.53;1625219;88;21098;-58
2022/04/18 06:48:01;;;;;;;12.10;10.13;;;;;;;21.06;90.31;99529.23;1625856;86;21717;-60
2022/04/18 06:50:42;;;;;;;14.83;12.43;;;;;;;20.94;89.13;99528.20;1622249;88;21087;-58
2022/04/18 06:53:28;;;;;;;14.03;12.07;;;;;;;20.98;89.88;99531.89;1589675;88;21127;-59
2022/04/18 06:58:53;;;;;;;12.37;11.10;;;;;;;21.01;94.23;99515.47;1624181;86;21763;-61
2022/04/18 07:01:20;;;;;;;14.07;11.70;;;;;;;21.09;98.81;99499.00;1625658;88;21134;-61
2022/04/18 07:03:46;;;;;;;14.40;11.37;;;;;;;21.09;98.81;99499.00;1625726;86;21052;-68
2022/04/18 07:06:13;;;;;;;12.43;9.63;;;;;;;21.34;93.58;99516.70;1623998;87;21260;-58
2022/04/18 07:08:40;;;;;;;12.63;10.20;;;;;;;21.52;86.32;99531.75;1623657;86;21162;-70
2022/04/18 07:11:09;;;;;;;11.43;10.23;;;;;;;21.52;84.32;99521.14;1618108;86;21082;-58
2022/04/18 07:13:36;;;;;;;12.07;10.80;;;;;;;21.51;86.53;99519.00;1625088;86;21250;-58
2022/04/18 07:16:04;;;;;;;13.70;11.53;;;;;;;21.49;86.52;99537.59;1623884;86;21020;-59
2022/04/18 07:18:31;;;;;;;13.33;11.23;;;;;;;21.48;85.21;99546.59;1622967;86;21304;-59
2022/04/18 07:21:00;;;;;;;15.23;11.23;;;;;;;21.12;91.80;99521.53;1602801;86;20984;-60
2022/04/18 07:23:27;;;;;;;13.60;11.33;;;;;;;21.37;88.65;99528.09;1623306;86;21152;-59
2022/04/18 07:25:56;;;;;;;13.67;10.70;;;;;;;21.36;89.16;99518.54;1622951;86;20984;-61
2022/04/18 07:28:29;;;;;;;13.73;11.00;;;;;;;21.44;92.18;99521.19;1622957;86;21003;-58
2022/04/18 07:30:58;;;;;;;16.00;12.73;;;;;;;21.03;97.24;99534.55;1623077;87;20925;-58
2022/04/18 07:33:26;;;;;;;14.77;12.10;;;;;;;21.40;96.50;99536.56;1624121;86;21146;-66
2022/04/18 07:35:52;;;;;;;13.20;11.47;;;;;;;21.47;96.94;99527.78;1602733;88;21062;-59
2022/04/18 07:41:04;;;;;;;12.83;11.13;;;;;;;21.50;99.11;99528.03;1623338;86;21750;-60
2022/04/18 07:43:34;;;;;;;14.20;10.80;;;;;;;21.67;97.68;99524.22;1622612;87;21095;-58
2022/04/18 07:46:03;;;;;;;14.37;11.70;;;;;;;21.73;97.48;99512.53;1623449;86;21453;-59
2022/04/18 07:48:31;;;;;;;13.03;11.73;;;;;;;21.99;96.63;99506.52;1623794;86;20984;-57
2022/04/18 07:53:44;;;;;;;14.57;12.83;;;;;;;22.68;84.83;99487.36;1623896;86;21472;-59
2022/04/18 07:56:11;;;;;;;14.60;13.10;;;;;;;22.85;79.85;99493.58;1623562;86;21023;-58
2022/04/18 07:58:38;;;;;;;16.27;13.30;;;;;;;22.94;82.87;99486.04;1624840;86;21147;-66
2022/04/18 08:01:07;;;;;;;14.40;12.67;;;;;;;23.08;81.13;99487.48;1622966;88;21078;-65
2022/04/18 08:03:37;;;;;;;15.63;13.97;;;;;;;23.08;81.90;99486.70;1623757;86;22183;-58
2022/04/18 08:06:06;;;;;;;16.27;14.50;;;;;;;23.21;83.31;99478.01;1624124;86;21545;-59
2022/04/18 08:08:37;;;;;;;17.50;14.00;;;;;;;23.58;79.04;99473.80;1623945;86;21043;-67
2022/04/18 08:11:07;;;;;;;16.23;13.70;;;;;;;23.82;77.08;99467.08;1623317;86;21297;-60
2022/04/18 08:13:34;;;;;;;17.00;13.60;;;;;;;23.96;71.66;99471.92;1624367;86;21820;-58
2022/04/18 08:16:18;;;;;;;17.17;15.33;;;;;;;24.06;71.48;99473.09;1603095;86;21086;-65
2022/04/18 08:18:48;;;;;;;18.03;14.83;;;;;;;24.18;65.91;99471.30;1584660;88;21039;-58
2022/04/18 08:21:17;;;;;;;14.47;12.90;;;;;;;24.22;66.18;99470.42;1588167;90;21126;-58
2022/04/18 08:23:45;;;;;;;15.77;13.30;;;;;;;24.29;65.20;99478.04;1589860;88;21211;-58
2022/04/18 08:26:22;;;;;;;16.73;13.77;;;;;;;24.38;65.98;99474.16;1557144;90;21198;-59
2022/04/18 08:28:54;;;;;;;15.40;13.90;;;;;;;24.51;65.28;99472.88;1588583;88;21190;-60
2022/04/18 08:31:22;;;;;;;17.23;14.47;;;;;;;24.74;63.31;99464.45;1589183;90;21606;-59
2022/04/18 08:33:57;;;;;;;16.33;12.63;;;;;;;24.47;65.56;99466.56;1588803;88;21135;-58
2022/04/18 08:36:23;;;;;;;17.33;15.37;;;;;;;24.57;66.15;99461.58;1590506;88;22118;-60
2022/04/18 08:38:50;;;;;;;17.53;15.17;;;;;;;24.61;65.73;99455.11;1589487;88;21345;-66
2022/04/18 08:41:39;;;;;;;18.97;15.43;;;;;;;24.78;64.20;99453.99;1589052;88;21660;-58
2022/04/18 08:44:07;;;;;;;16.53;13.77;;;;;;;24.88;60.39;99444.44;1589044;88;21128;-58
2022/04/18 08:46:35;;;;;;;15.83;13.37;;;;;;;24.72;59.30;99450.63;1568868;88;21131;-58
2022/04/18 08:54:39;;;;;;;16.67;14.53;;;;;;;24.23;58.78;99460.02;1589552;88;21704;-59
2022/04/18 08:57:08;;;;;;;21.07;15.70;;;;;;;24.01;60.93;99454.53;1589518;89;21706;-58
2022/04/18 08:59:35;;;;;;;18.73;15.07;;;;;;;24.09;59.86;99444.53;1589313;90;21017;-68
2022/04/18 09:02:03;;;;;;;16.10;14.30;;;;;;;23.66;62.45;99429.25;1589284;90;21097;-61
2022/04/18 09:04:36;;;;;;;20.60;15.13;;;;;;;23.52;63.28;99455.27;1589215;88;21566;-60
2022/04/18 09:07:11;;;;;;;17.77;15.50;;;;;;;23.46;65.57;99415.72;1596888;89;21042;-60
2022/04/18 09:09:40;;;;;;;18.50;15.83;;;;;;;23.76;62.53;99409.17;1605387;89;21593;-59
2022/04/18 09:12:21;;;;;;;18.70;15.78;;;;;;;23.55;65.12;99420.08;1605240;89;21395;-65
2022/04/18 09:14:53;;;;;;;21.17;16.40;;;;;;;23.38;69.08;99435.78;1596429;88;21814;-59
2022/04/18 09:17:33;;;;;;;19.00;14.37;;;;;;;23.78;68.13;99431.73;1605367;89;21169;-63
2022/04/18 09:20:13;;;;;;;18.87;16.20;;;;;;;24.00;67.75;99433.77;1623898;86;20994;-60
2022/04/18 09:22:45;;;;;;;21.03;17.77;;;;;;;24.41;63.86;99431.77;1639958;86;21130;-59
2022/04/18 09:25:15;;;;;;;19.87;15.47;;;;;;;24.41;63.73;99423.77;1639437;86;21030;-66
2022/04/18 09:27:57;;;;;;;18.73;15.60;;;;;;;24.31;64.84;99417.27;1639506;86;21188;-66
2022/04/18 09:30:31;;;;;;;20.43;16.23;;;;;;;24.43;66.42;99418.92;1638231;86;21057;-59
2022/04/18 09:33:08;;;;;;;17.40;15.50;;;;;;;24.83;62.50;99421.11;1638766;86;21002;-59
2022/04/18 09:35:39;;;;;;;16.83;15.07;;;;;;;24.95;60.31;99414.17;1635937;86;21110;-58
2022/04/18 09:38:08;;;;;;;18.93;15.13;;;;;;;25.06;58.27;99407.30;1640119;86;20995;-58
2022/04/18 09:40:53;;;;;;;17.50;13.57;;;;;;;25.10;58.95;99401.64;1639860;86;21238;-59
2022/04/18 09:43:23;;;;;;;21.33;15.90;;;;;;;25.29;58.83;99408.16;1640321;86;21085;-58
2022/04/18 09:45:53;;;;;;;18.70;15.07;;;;;;;25.58;60.15;99407.77;1640119;86;21451;-58
2022/04/18 09:48:21;;;;;;;16.87;13.70;;;;;;;25.66;60.39;99406.48;1612412;86;21059;-58
2022/04/18 09:50:59;;;;;;;16.97;13.60;;;;;;;25.69;58.61;99402.43;1639608;87;21077;-58
2022/04/18 09:53:27;;;;;;;22.73;16.33;;;;;;;26.00;54.91;99407.83;1639146;87;21148;-58
2022/04/18 09:55:56;;;;;;;19.70;14.93;;;;;;;26.05;55.09;99393.55;1639777;86;21355;-66
2022/04/18 09:58:23;;;;;;;15.67;13.93;;;;;;;26.15;55.31;99387.40;1639158;87;21117;-60
2022/04/18 10:00:50;;;;;;;17.70;13.90;;;;;;;26.33;53.76;99361.55;1639430;87;21494;-58
2022/04/18 10:03:18;;;;;;;15.50;13.13;;;;;;;26.25;52.39;99366.28;1639164;86;20959;-60
2022/04/18 10:05:47;;;;;;;16.97;12.67;;;;;;;26.19;52.01;99370.20;1629753;86;21311;-60
2022/04/18 10:08:15;;;;;;;16.77;14.70;;;;;;;26.30;50.20;99379.53;1626353;86;21032;-62
2022/04/18 10:10:41;;;;;;;16.43;13.50;;;;;;;26.36;49.08;99383.62;1623460;88;22383;-58
2022/04/18 10:13:10;;;;;;;17.57;12.73;;;;;;;26.12;49.43;99389.34;1623970;86;21466;-58
2022/04/18 10:15:39;;;;;;;17.87;13.60;;;;;;;25.98;49.94;99385.19;1623655;86;21571;-58
2022/04/18 10:18:10;;;;;;;19.23;13.67;;;;;;;26.00;49.90;99384.34;1623208;87;21047;-70
2022/04/18 10:20:52;;;;;;;15.03;13.20;;;;;;;26.37;48.97;99389.77;1624431;86;21497;-58
2022/04/18 10:24:13;;;;;;;16.77;12.33;;;;;;;26.26;48.96;99401.28;1623754;86;21019;-71
2022/04/18 10:27:25;;;;;;;17.27;14.43;;;;;;;27.00;47.53;99389.07;1594000;88;21047;-71
2022/04/18 10:29:54;;;;;;;17.02;13.78;;;;;;;27.05;46.62;99397.75;1569068;91;21056;-59
2022/04/18 10:32:24;;;;;;;14.77;12.27;;;;;;;27.14;46.44;99391.87;1589768;88;22734;-59
2022/04/18 10:35:01;;;;;;;16.87;13.57;;;;;;;27.28;46.40;99390.39;1590066;90;21048;-61
2022/04/18 10:37:29;;;;;;;16.33;13.47;;;;;;;27.07;46.34;99397.42;1590777;88;21107;-58
2022/04/18 10:40:03;;;;;;;16.10;12.37;;;;;;;27.30;45.89;99399.42;1581924;89;21108;-71
2022/04/18 10:42:35;;;;;;;14.80;12.17;;;;;;;27.36;46.37;99392.83;1589195;90;21536;-60
2022/04/18 10:45:12;;;;;;;14.23;12.50;;;;;;;27.50;45.21;99395.31;1589499;88;21255;-58
2022/04/18 10:48:00;;;;;;;19.53;11.97;;;;;;;27.59;44.50;99386.73;1590119;88;21594;-60
2022/04/18 10:50:50;;;;;;;14.10;11.57;;;;;;;27.74;44.27;99376.90;1590121;88;22136;-64
2022/04/18 10:53:26;;;;;;;14.97;10.77;;;;;;;27.22;45.46;99372.91;1588985;88;21088;-61
2022/04/18 10:55:59;;;;;;;14.40;10.43;;;;;;;27.35;45.06;99369.30;1590000;88;21093;-59
2022/04/18 10:58:31;;;;;;;14.23;11.83;;;;;;;27.74;44.60;99355.47;1590333;88;20989;-58
2022/04/18 11:01:00;;;;;;;14.70;9.48;;;;;;;28.46;43.75;99343.07;1590145;88;21081;-65
2022/04/18 11:03:43;;;;;;;13.93;10.10;;;;;;;28.65;43.81;99333.81;1590272;88;21491;-60
2022/04/18 11:06:18;;;;;;;12.87;8.63;;;;;;;28.55;43.09;99325.02;1590026;88;21639;-61
2022/04/18 11:09:00;;;;;;;14.47;8.87;;;;;;;28.86;42.19;99323.86;1577511;88;21072;-60
2022/04/18 11:11:46;;;;;;;12.73;8.40;;;;;;;29.32;41.37;99318.85;1590208;88;21903;-59
2022/04/18 11:14:25;;;;;;;10.53;8.27;;;;;;;29.53;39.50;99320.13;1590358;90;21500;-59
2022/04/18 11:17:00;;;;;;;12.37;8.85;;;;;;;29.69;39.06;99321.64;1590484;90;21450;-59
2022/04/18 11:19:37;;;;;;;12.57;8.97;;;;;;;29.84;38.45;99321.55;1591261;88;21036;-58
2022/04/18 11:22:16;;;;;;;11.27;7.93;;;;;;;27.99;41.32;99332.94;1571012;90;21103;-65
2022/04/18 11:24:59;;;;;;;10.90;7.13;;;;;;;27.70;41.65;99321.60;1590648;88;21292;-59
2022/04/18 11:27:30;;;;;;;11.37;7.63;;;;;;;27.59;42.41;99321.15;1591525;88;20984;-59
2022/04/18 11:30:11;;;;;;;13.17;7.47;;;;;;;27.26;43.29;99315.53;1589897;90;21060;-58
2022/04/18 11:32:45;;;;;;;14.97;9.00;;;;;;;27.39;43.02;99317.27;1571000;90;21016;-59
2022/04/18 11:35:13;;;;;;;11.57;7.90;;;;;;;27.14;43.63;99310.27;1590011;90;21598;-66
2022/04/18 11:37:44;;;;;;;11.27;7.43;;;;;;;27.47;43.35;99308.42;1589054;90;21233;-60
2022/04/18 11:40:13;;;;;;;;;;;;;;;27.76;42.08;99302.38;1592437;90;21060;-59
2022/04/18 11:42:42;;;;;;;12.30;7.37;;;;;;;27.71;42.12;99305.20;1590014;88;20281;-60
2022/04/18 11:45:12;;;;;;;12.03;7.47;;;;;;;27.84;42.12;99297.56;1589467;90;20996;-60
2022/04/18 11:47:44;;;;;;;12.60;7.47;;;;;;;27.92;41.74;99301.31;1589303;90;21119;-60
2022/04/18 11:50:11;;;;;;;11.40;7.65;;;;;;;28.12;41.97;99296.55;1589771;90;22024;-59
2022/04/18 11:52:41;;;;;;;13.47;6.73;;;;;;;28.22;41.99;99287.91;1589687;90;21049;-58
2022/04/18 11:55:18;;;;;;;9.67;6.50;;;;;;;28.54;40.93;99282.47;1589083;90;21084;-59
2022/04/18 11:57:45;;;;;;;13.97;7.50;;;;;;;28.68;40.00;99281.66;1589495;88;21588;-59
2022/04/18 12:06:44;;;;;;;12.53;6.58;;;;;;;28.69;39.48;99276.52;1589918;90;20984;-58